Time;durP1;ratioP1;P1;durP2;ratioP2;P2;SDS_P1;SDS_P2;PMS_P1;PMS_P2;Temp;Humidity;BMP_temperature;BMP_pressure;BME280_temperature;BME280_humidity;BME280_pressure;Samples;Min_cycle;Max_cycle;Signal;HPM_P1;HPM_P2
2022/06/03 00:02:35;;;;;;;3.97;3.67;;;;;;;23.39;88.57;99512.31;5061777;28;20199;-67
2022/06/03 00:05:29;;;;;;;3.53;3.37;;;;;;;23.34;88.75;99520.53;5088144;28;20264;-67
2022/06/03 00:08:14;;;;;;;4.10;3.80;;;;;;;23.33;89.28;99518.03;5088565;28;20200;-67
2022/06/03 00:11:12;;;;;;;3.80;3.60;;;;;;;23.25;89.05;99504.75;5084858;28;20206;-68
2022/06/03 00:14:00;;;;;;;3.90;3.60;;;;;;;23.14;89.27;99499.53;5082503;28;20698;-67
2022/06/03 00:16:38;;;;;;;4.27;3.93;;;;;;;22.99;89.29;99486.75;5089573;28;20211;-67
2022/06/03 00:19:29;;;;;;;4.00;3.80;;;;;;;23.06;89.39;99504.56;5090074;28;20294;-67
2022/06/03 00:22:24;;;;;;;4.13;3.80;;;;;;;23.01;89.22;99502.31;5089947;28;20222;-67
2022/06/03 00:25:17;;;;;;;3.70;3.40;;;;;;;22.93;89.85;99505.53;5085698;28;20260;-67
2022/06/03 00:28:05;;;;;;;3.97;3.57;;;;;;;22.83;90.05;99504.59;5088993;28;20233;-68
2022/06/03 00:30:48;;;;;;;4.10;3.70;;;;;;;22.73;90.55;99500.22;5088382;28;20219;-67
2022/06/03 00:33:40;;;;;;;4.03;3.63;;;;;;;22.62;90.51;99490.56;5089605;28;20250;-67
2022/06/03 00:36:32;;;;;;;3.83;3.63;;;;;;;22.47;91.59;99494.38;5091811;28;20226;-67
2022/06/03 00:39:22;;;;;;;3.87;3.57;;;;;;;22.38;92.23;99495.09;5094363;28;20202;-67
2022/06/03 00:42:04;;;;;;;3.53;3.33;;;;;;;22.29;92.88;99498.41;5093766;28;20207;-67
2022/06/03 00:45:05;;;;;;;3.60;3.40;;;;;;;22.23;93.01;99488.44;5093481;28;20195;-67
2022/06/03 00:47:50;;;;;;;4.30;4.00;;;;;;;22.23;92.87;99494.47;5093607;28;20195;-67
2022/06/03 00:50:44;;;;;;;3.53;3.43;;;;;;;22.20;93.30;99493.88;5093643;28;20199;-67
2022/06/03 00:53:27;;;;;;;4.63;3.80;;;;;;;22.04;94.11;99495.97;5087617;28;20209;-68
2022/06/03 00:56:21;;;;;;;4.50;3.07;;;;;;;21.96;94.05;99491.34;5093466;28;20224;-67
2022/06/03 00:59:08;;;;;;;3.40;3.10;;;;;;;21.80;94.89;99480.38;5093292;28;20196;-67
2022/06/03 01:01:45;;;;;;;3.40;3.20;;;;;;;21.83;95.16;99488.81;5092541;28;20192;-67
2022/06/03 01:04:46;;;;;;;3.73;3.33;;;;;;;21.83;95.28;99496.63;5093343;28;20199;-67
2022/06/03 01:07:22;;;;;;;3.97;3.67;;;;;;;21.73;94.84;99474.78;5093602;28;20200;-67
2022/06/03 01:10:08;;;;;;;4.13;3.10;;;;;;;21.75;94.96;99485.94;5092868;28;20195;-67
2022/06/03 01:13:06;;;;;;;3.30;3.20;;;;;;;21.71;95.09;99466.22;5092698;28;20205;-67
2022/06/03 01:15:41;;;;;;;3.93;3.73;;;;;;;21.82;94.92;99484.53;5090791;28;20290;-67
2022/06/03 01:18:26;;;;;;;3.30;3.10;;;;;;;21.83;94.47;99480.97;5093043;28;20206;-67
2022/06/03 01:21:12;;;;;;;3.73;3.53;;;;;;;21.83;94.41;99478.38;5091317;28;20267;-67
2022/06/03 01:24:02;;;;;;;9.07;4.63;;;;;;;21.76;94.77;99490.22;5093161;28;20607;-67
2022/06/03 01:27:01;;;;;;;3.77;3.57;;;;;;;21.54;95.33;99464.06;5092470;28;20194;-67
2022/06/03 01:29:41;;;;;;;7.27;4.13;;;;;;;21.50;95.85;99483.47;5061183;28;20674;-67
2022/06/03 01:32:39;;;;;;;3.90;3.50;;;;;;;21.45;96.30;99486.41;5091897;28;20206;-67
2022/06/03 01:35:41;;;;;;;4.97;4.40;;;;;;;21.42;97.14;99480.63;5089608;28;20206;-67
2022/06/03 01:38:22;;;;;;;3.83;3.53;;;;;;;21.39;97.15;99480.81;5089488;28;20199;-67
2022/06/03 01:41:06;;;;;;;4.20;3.60;;;;;;;21.40;97.25;99482.47;5092907;28;20692;-67
2022/06/03 01:44:11;;;;;;;5.27;3.70;;;;;;;21.38;96.94;99468.72;5092402;28;20199;-67
2022/06/03 01:46:43;;;;;;;7.10;4.00;;;;;;;21.43;96.62;99471.81;5091598;28;20195;-67
2022/06/03 01:49:36;;;;;;;4.67;4.00;;;;;;;21.42;97.11;99470.19;5092521;28;20206;-67
2022/06/03 01:52:39;;;;;;;4.93;4.53;;;;;;;21.31;97.57;99467.50;5092511;28;20210;-67
2022/06/03 01:55:39;;;;;;;5.33;4.03;;;;;;;21.21;98.43;99469.13;5090249;28;20653;-67
2022/06/03 01:58:54;;;;;;;5.90;3.73;;;;;;;21.09;99.06;99465.63;5092410;28;20670;-67
2022/06/03 02:01:47;;;;;;;4.40;4.10;;;;;;;21.03;99.37;99460.00;5092324;28;21179;-67
2022/06/03 02:04:43;;;;;;;7.30;3.73;;;;;;;20.90;100.00;99463.47;5090816;28;20254;-67
2022/06/03 02:07:36;;;;;;;4.33;4.13;;;;;;;20.82;100.00;99465.81;5091809;28;20204;-67
2022/06/03 02:10:36;;;;;;;4.00;3.80;;;;;;;20.77;100.00;99464.47;5092176;28;20200;-67
2022/06/03 02:13:46;;;;;;;4.50;4.30;;;;;;;20.72;100.00;99467.38;5090913;28;20616;-67
2022/06/03 02:16:38;;;;;;;4.33;4.00;;;;;;;20.63;100.00;99469.81;5086070;28;20225;-67
2022/06/03 02:19:28;;;;;;;4.40;3.47;;;;;;;20.65;100.00;99471.34;5077655;28;20198;-67
2022/06/03 02:22:18;;;;;;;4.10;3.80;;;;;;;20.62;100.00;99474.19;5085403;28;20203;-67
2022/06/03 02:25:01;;;;;;;3.90;3.70;;;;;;;20.62;100.00;99479.38;5092359;28;20200;-67
2022/06/03 02:28:09;;;;;;;4.50;4.10;;;;;;;20.55;100.00;99475.53;5091023;28;20199;-67
2022/06/03 02:30:59;;;;;;;4.03;3.67;;;;;;;20.48;100.00;99476.94;5091368;28;20210;-67
2022/06/03 02:34:08;;;;;;;5.17;3.90;;;;;;;20.46;100.00;99473.59;5091572;28;20206;-67
2022/06/03 02:36:56;;;;;;;4.10;3.90;;;;;;;20.47;100.00;99470.06;5090688;28;20222;-67
2022/06/03 02:39:55;;;;;;;7.57;3.97;;;;;;;20.54;100.00;99479.13;5091414;28;20292;-67
2022/06/03 02:43:07;;;;;;;4.63;4.23;;;;;;;20.64;100.00;99476.69;5091249;28;20206;-67
2022/06/03 02:46:16;;;;;;;4.13;3.87;;;;;;;20.73;100.00;99478.66;5090300;28;20210;-67
2022/06/03 02:49:30;;;;;;;3.87;3.67;;;;;;;20.84;100.00;99484.75;5091080;28;20260;-67
2022/06/03 02:52:45;;;;;;;6.17;4.20;;;;;;;20.98;100.00;99490.75;5030605;28;20205;-67
2022/06/03 02:55:42;;;;;;;7.80;4.10;;;;;;;21.05;98.95;99492.00;5089082;28;20198;-67
2022/06/03 02:58:56;;;;;;;4.07;3.87;;;;;;;21.11;98.08;99496.78;5090028;28;20222;-67
2022/06/03 03:01:53;;;;;;;4.00;3.70;;;;;;;21.17;97.82;99497.19;5084238;28;20298;-67
2022/06/03 03:04:44;;;;;;;6.10;5.50;;;;;;;21.16;97.01;99494.72;5091371;28;20659;-67
2022/06/03 03:07:32;;;;;;;4.20;3.90;;;;;;;21.18;96.76;99498.03;5091171;28;20206;-68
2022/06/03 03:10:08;;;;;;;4.50;4.13;;;;;;;21.19;96.82;99504.91;5091567;28;20209;-67
2022/06/03 03:13:18;;;;;;;4.23;3.93;;;;;;;21.23;96.42;99506.34;5090023;28;20681;-68
2022/06/03 03:16:19;;;;;;;4.90;4.37;;;;;;;21.27;96.17;99507.78;5089216;28;20198;-67
2022/06/03 03:19:19;;;;;;;4.27;4.07;;;;;;;21.27;96.10;99513.00;5090281;28;20253;-67
2022/06/03 03:22:08;;;;;;;3.97;3.57;;;;;;;21.30;95.85;99510.16;5090401;28;20207;-67
2022/06/03 03:25:03;;;;;;;4.30;3.90;;;;;;;21.34;95.65;99514.22;5088509;28;20210;-67
2022/06/03 03:27:53;;;;;;;9.07;3.97;;;;;;;21.19;95.95;99490.09;5070409;28;20256;-67
2022/06/03 03:30:29;;;;;;;4.07;3.73;;;;;;;21.36;95.06;99518.38;5090689;28;20654;-67
2022/06/03 03:33:12;;;;;;;3.93;3.57;;;;;;;21.40;95.47;99525.06;5089386;28;20209;-67
2022/06/03 03:36:06;;;;;;;3.93;3.70;;;;;;;21.49;95.74;99523.53;5089647;28;20202;-67
2022/06/03 03:39:23;;;;;;;4.20;3.90;;;;;;;21.61;94.92;99533.09;5086453;28;20452;-67
2022/06/03 03:42:26;;;;;;;3.67;3.37;;;;;;;21.77;95.14;99540.63;5045122;28;20624;-67
2022/06/03 03:45:28;;;;;;;3.87;3.67;;;;;;;21.95;93.75;99532.28;5086477;28;20199;-68
2022/06/03 03:48:33;;;;;;;4.10;3.80;;;;;;;22.14;92.18;99536.13;5090434;28;20715;-67
2022/06/03 03:51:11;;;;;;;3.77;3.50;;;;;;;22.32;92.18;99538.19;5088771;28;20198;-67
2022/06/03 03:54:16;;;;;;;4.27;3.23;;;;;;;22.48;92.12;99545.69;5090518;28;20223;-67
2022/06/03 03:57:16;;;;;;;3.73;3.43;;;;;;;22.64;90.60;99556.63;5088351;28;20758;-67
2022/06/03 04:00:19;;;;;;;4.27;3.97;;;;;;;22.71;89.17;99560.47;5088085;28;20331;-67
2022/06/03 04:03:23;;;;;;;3.53;3.33;;;;;;;22.86;89.99;99566.28;5088549;28;20662;-67
2022/06/03 04:06:23;;;;;;;3.33;3.10;;;;;;;22.94;88.78;99569.13;5088767;28;20195;-67
2022/06/03 04:09:27;;;;;;;3.23;3.03;;;;;;;23.00;88.65;99563.41;5088707;28;20648;-67
2022/06/03 04:12:08;;;;;;;3.40;3.17;;;;;;;23.12;87.90;99572.06;5088275;28;20203;-67
2022/06/03 04:15:08;;;;;;;3.90;3.40;;;;;;;23.21;87.45;99566.09;5090025;28;20215;-68
2022/06/03 04:18:05;;;;;;;3.30;3.10;;;;;;;23.33;86.40;99576.41;5087768;28;20594;-67
2022/06/03 04:21:00;;;;;;;3.33;2.93;;;;;;;23.44;86.66;99572.97;5087213;28;20231;-67
2022/06/03 04:24:03;;;;;;;3.87;3.60;;;;;;;23.53;85.66;99587.94;5090092;28;20602;-68
2022/06/03 04:26:56;;;;;;;5.17;3.33;;;;;;;23.60;85.99;99583.88;5090357;28;20689;-68
2022/06/03 04:30:07;;;;;;;5.83;3.60;;;;;;;23.71;85.14;99586.47;5090080;28;20202;-67
2022/06/03 04:33:03;;;;;;;4.13;2.83;;;;;;;23.88;87.23;99592.94;5087355;28;20199;-67
2022/06/03 04:36:16;;;;;;;4.60;3.13;;;;;;;24.19;84.62;99596.50;5089622;28;20202;-67
2022/06/03 04:39:22;;;;;;;6.33;3.70;;;;;;;24.42;83.78;99611.16;5088518;28;20702;-67
2022/06/03 04:42:28;;;;;;;3.43;3.33;;;;;;;24.62;81.63;99609.47;5086505;28;20191;-68
2022/06/03 04:45:45;;;;;;;2.90;2.80;;;;;;;24.74;80.97;99609.28;5086629;28;20687;-67
2022/06/03 04:48:56;;;;;;;3.53;3.33;;;;;;;24.98;79.40;99603.72;5062425;28;20199;-67
2022/06/03 04:51:56;;;;;;;3.37;3.17;;;;;;;25.14;79.38;99611.13;5090208;28;20192;-68
2022/06/03 04:55:26;;;;;;;3.07;2.87;;;;;;;25.36;78.81;99616.16;5064131;28;20196;-68
2022/06/03 04:58:26;;;;;;;5.40;3.03;;;;;;;25.69;76.98;99626.31;5090063;28;20234;-69
2022/06/03 05:01:36;;;;;;;3.10;2.90;;;;;;;25.95;77.04;99630.06;5089549;28;20206;-68
2022/06/03 05:04:42;;;;;;;3.43;3.13;;;;;;;26.32;73.19;99632.03;5085310;28;20244;-68
2022/06/03 05:07:47;;;;;;;4.83;3.00;;;;;;;26.62;73.32;99639.75;5086210;28;20214;-68
2022/06/03 05:10:46;;;;;;;3.33;3.07;;;;;;;26.78;71.72;99639.97;5041972;28;20272;-68
2022/06/03 05:14:01;;;;;;;4.50;2.77;;;;;;;27.09;73.26;99649.28;5061491;28;20207;-69
2022/06/03 05:17:03;;;;;;;4.53;2.60;;;;;;;27.42;72.14;99645.25;5070893;28;20694;-69
2022/06/03 05:19:59;;;;;;;2.90;2.70;;;;;;;27.79;69.43;99649.66;5084563;28;20228;-70
2022/06/03 05:23:02;;;;;;;2.93;2.83;;;;;;;28.17;69.37;99650.16;5090428;28;20207;-69
2022/06/03 05:26:20;;;;;;;2.73;2.63;;;;;;;28.57;66.46;99649.66;5091429;28;20267;-68
2022/06/03 05:29:04;;;;;;;6.63;3.10;;;;;;;28.87;67.70;99640.47;5089559;28;20222;-68
2022/06/03 05:31:57;;;;;;;3.07;2.87;;;;;;;29.10;67.16;99633.69;5089506;28;20206;-68
2022/06/03 05:35:16;;;;;;;3.37;3.07;;;;;;;29.36;64.59;99653.94;5088568;28;20207;-68
2022/06/03 05:38:12;;;;;;;3.30;3.00;;;;;;;29.65;64.76;99649.06;5025379;28;20224;-68
2022/06/03 05:41:07;;;;;;;2.58;2.45;;;;;;;29.83;61.80;99646.31;5022265;28;20628;-68
2022/06/03 05:43:55;;;;;;;2.90;2.70;;;;;;;30.05;61.02;99643.88;5076352;28;20759;-68
2022/06/03 05:46:33;;;;;;;2.50;2.40;;;;;;;30.13;61.75;99635.94;5088098;28;20667;-68
2022/06/03 05:49:15;;;;;;;3.05;2.83;;;;;;;30.33;60.46;99641.72;5090306;28;20199;-67
2022/06/03 05:51:59;;;;;;;3.10;2.90;;;;;;;30.52;58.97;99640.59;5091643;28;20195;-69
2022/06/03 05:54:44;;;;;;;3.08;2.88;;;;;;;30.79;61.58;99645.50;5091134;28;20203;-68
2022/06/03 05:57:20;;;;;;;2.90;2.80;;;;;;;30.95;58.81;99650.78;5091168;28;20231;-68
2022/06/03 06:00:13;;;;;;;2.92;2.83;;;;;;;30.99;57.46;99646.78;5091608;28;20203;-68
2022/06/03 06:02:45;;;;;;;3.17;3.00;;;;;;;30.88;57.82;99652.44;5090841;28;20207;-68
2022/06/03 06:05:27;;;;;;;2.67;2.53;;;;;;;30.81;58.42;99651.44;5091452;28;20200;-68
2022/06/03 06:08:07;;;;;;;2.80;2.60;;;;;;;30.75;57.20;99649.47;5091921;28;20199;-70
2022/06/03 06:10:44;;;;;;;2.95;2.83;;;;;;;30.75;58.49;99619.53;5090491;28;20207;-69
2022/06/03 06:13:30;;;;;;;3.30;2.58;;;;;;;30.85;58.67;99631.59;5089106;28;20290;-69
2022/06/03 06:16:11;;;;;;;3.42;2.38;;;;;;;31.11;58.45;99657.84;5090048;28;20203;-71
2022/06/03 06:18:52;;;;;;;3.20;3.00;;;;;;;31.40;60.13;99641.31;5091296;28;20243;-71
2022/06/03 06:21:40;;;;;;;4.38;2.92;;;;;;;31.50;56.07;99652.56;5091189;28;20199;-71
2022/06/03 06:24:14;;;;;;;2.80;2.70;;;;;;;31.67;56.25;99648.81;5089387;28;20199;-73
2022/06/03 06:27:26;;;;;;;3.15;2.80;;;;;;;31.96;55.09;99648.13;5092368;28;20264;-73
2022/06/03 06:30:07;;;;;;;3.55;3.25;;;;;;;32.08;53.13;99644.09;5088795;28;20242;-71
2022/06/03 06:32:56;;;;;;;2.90;2.80;;;;;;;32.36;54.59;99649.66;5089617;28;20582;-72
2022/06/03 06:36:06;;;;;;;2.95;2.78;;;;;;;32.68;53.99;99652.03;5089621;28;20234;-72
2022/06/03 06:38:46;;;;;;;3.10;2.90;;;;;;;32.68;55.19;99649.38;5089615;28;20272;-69
2022/06/03 06:41:35;;;;;;;2.85;2.65;;;;;;;32.72;51.92;99650.66;5089784;28;20222;-70
2022/06/03 06:44:09;;;;;;;3.28;2.58;;;;;;;32.89;53.32;99660.13;5089063;28;20203;-68
2022/06/03 06:46:48;;;;;;;3.35;3.22;;;;;;;33.04;50.56;99650.31;5090715;28;20724;-67
2022/06/03 06:49:26;;;;;;;2.90;2.60;;;;;;;33.10;50.92;99644.28;5089777;28;20294;-68
2022/06/03 06:52:25;;;;;;;4.05;2.92;;;;;;;33.32;52.13;99654.97;5089715;28;20206;-69
2022/06/03 06:55:07;;;;;;;2.80;2.70;;;;;;;33.49;53.22;99659.91;5089144;28;20203;-68
2022/06/03 06:57:37;;;;;;;2.92;2.72;;;;;;;33.72;48.01;99649.97;5089104;28;20219;-68
2022/06/03 07:00:16;;;;;;;3.03;2.92;;;;;;;33.82;51.70;99649.66;5087604;28;20233;-67
2022/06/03 07:02:49;;;;;;;8.20;3.58;;;;;;;33.91;50.38;99653.84;5091751;28;20646;-67
2022/06/03 07:05:21;;;;;;;21.90;2.88;;;;;;;34.02;49.16;99658.66;5088711;28;20206;-67
2022/06/03 07:07:59;;;;;;;3.35;2.85;;;;;;;34.05;48.81;99652.13;5089450;28;20192;-67
2022/06/03 07:10:29;;;;;;;3.50;3.22;;;;;;;33.93;48.75;99653.66;5091349;28;20662;-68
2022/06/03 07:13:04;;;;;;;3.10;2.92;;;;;;;33.65;48.76;99653.56;5090817;28;20207;-67
2022/06/03 07:15:45;;;;;;;3.42;3.10;;;;;;;33.58;51.45;99648.13;5090217;28;20199;-67
2022/06/03 07:21:12;;;;;;;2.92;2.83;;;;;;;33.54;48.85;99656.69;5089194;28;20209;-68
2022/06/03 07:23:48;;;;;;;3.03;2.83;;;;;;;33.86;49.48;99655.44;5089075;28;20230;-68
2022/06/03 07:26:23;;;;;;;3.45;3.15;;;;;;;33.89;47.83;99650.56;5090556;28;20203;-68
2022/06/03 07:28:57;;;;;;;3.08;2.78;;;;;;;33.70;47.71;99656.50;5090223;28;20199;-69
2022/06/03 07:31:31;;;;;;;3.80;3.60;;;;;;;33.57;47.43;99651.81;5090046;28;20203;-69
2022/06/03 07:34:04;;;;;;;3.65;3.45;;;;;;;33.65;49.78;99650.91;5088143;28;20206;-68
2022/06/03 07:36:43;;;;;;;3.05;2.95;;;;;;;33.49;48.78;99653.75;5090432;28;20621;-68
2022/06/03 07:39:49;;;;;;;3.30;3.10;;;;;;;33.75;52.00;99648.75;5090133;28;20218;-68
2022/06/03 07:42:24;;;;;;;3.28;3.08;;;;;;;34.11;48.84;99649.56;5090925;28;20261;-69
2022/06/03 07:45:00;;;;;;;2.92;2.70;;;;;;;34.27;48.31;99648.47;5090436;28;20195;-69
2022/06/03 07:47:29;;;;;;;3.63;3.33;;;;;;;34.36;46.41;99657.13;5090035;28;20195;-68
2022/06/03 07:49:59;;;;;;;3.80;3.60;;;;;;;34.57;49.72;99655.28;5090891;28;20587;-68
2022/06/03 07:52:36;;;;;;;3.03;2.70;;;;;;;34.74;47.43;99655.81;5089366;28;20212;-68
2022/06/03 07:55:08;;;;;;;3.92;3.15;;;;;;;34.99;46.52;99654.34;5090132;28;20655;-71
2022/06/03 07:57:35;;;;;;;3.60;3.40;;;;;;;35.13;43.68;99656.06;5088325;28;20199;-69
2022/06/03 08:00:07;;;;;;;2.90;2.80;;;;;;;35.17;43.43;99657.31;5089819;28;20203;-68
2022/06/03 08:02:35;;;;;;;2.65;2.45;;;;;;;35.36;41.68;99649.59;5087886;28;20199;-68
2022/06/03 08:05:08;;;;;;;4.97;2.78;;;;;;;35.64;42.60;99661.81;5090575;28;20662;-69
2022/06/03 08:13:11;;;;;;;2.60;2.50;;;;;;;36.10;41.22;99661.94;5089533;28;20210;-69
2022/06/03 08:15:40;;;;;;;2.85;2.75;;;;;;;36.16;41.79;99661.13;5089524;28;20203;-68
2022/06/03 08:18:09;;;;;;;2.70;2.50;;;;;;;36.24;41.09;99660.94;5089664;28;20265;-69
2022/06/03 08:20:42;;;;;;;3.03;2.92;;;;;;;35.92;42.92;99623.50;5089690;28;20196;-69
2022/06/03 08:23:09;;;;;;;2.78;2.58;;;;;;;36.00;42.27;99664.16;5089777;28;20257;-68
2022/06/03 08:25:41;;;;;;;3.05;2.85;;;;;;;35.85;42.72;99634.16;5089196;28;20236;-69
2022/06/03 08:28:12;;;;;;;2.80;2.60;;;;;;;36.06;39.99;99668.69;5089987;28;20194;-69
2022/06/03 08:30:42;;;;;;;3.30;3.10;;;;;;;36.22;39.24;99662.16;5089626;28;20207;-69
2022/06/03 08:33:13;;;;;;;3.17;2.90;;;;;;;36.26;38.89;99663.38;5089297;28;20206;-70
2022/06/03 08:35:45;;;;;;;2.72;2.63;;;;;;;36.43;40.71;99658.44;5090717;28;20196;-70
2022/06/03 08:38:18;;;;;;;3.00;2.80;;;;;;;36.46;37.70;99652.69;5090367;28;20215;-70
2022/06/03 08:40:51;;;;;;;5.30;2.75;;;;;;;36.42;38.37;99651.47;5089459;28;20683;-69
2022/06/03 08:43:26;;;;;;;2.83;2.63;;;;;;;36.28;41.45;99639.97;5089323;28;20198;-69
2022/06/03 08:45:56;;;;;;;2.40;2.25;;;;;;;36.28;39.18;99651.50;5087098;28;20277;-68
2022/06/03 08:48:31;;;;;;;2.90;2.70;;;;;;;36.26;38.50;99648.19;5089505;28;20210;-70
2022/06/03 08:51:00;;;;;;;5.85;2.85;;;;;;;36.33;37.66;99643.66;5087452;28;20203;-69
2022/06/03 08:53:38;;;;;;;3.15;2.40;;;;;;;36.27;40.27;99655.19;5089173;28;20590;-70
2022/06/03 08:56:08;;;;;;;3.30;2.40;;;;;;;36.37;39.25;99649.44;5089560;28;20203;-70
2022/06/03 08:58:43;;;;;;;2.60;2.50;;;;;;;36.44;39.31;99654.75;5093048;28;20215;-71
2022/06/03 09:01:22;;;;;;;2.58;2.38;;;;;;;36.59;38.48;99642.84;5093123;28;20191;-70
2022/06/03 09:04:09;;;;;;;2.83;2.72;;;;;;;36.31;38.96;99648.41;5093373;28;20658;-70
2022/06/03 09:06:54;;;;;;;2.33;2.22;;;;;;;36.41;39.11;99641.81;5091627;28;20203;-69
2022/06/03 09:09:28;;;;;;;2.70;2.42;;;;;;;36.49;38.63;99649.59;5090640;28;20196;-69
2022/06/03 09:12:03;;;;;;;3.65;2.30;;;;;;;36.46;36.45;99631.31;5092298;28;20704;-70
2022/06/03 09:14:32;;;;;;;3.30;3.00;;;;;;;36.52;37.76;99647.34;5092508;28;20223;-69
2022/06/03 09:17:07;;;;;;;3.70;3.17;;;;;;;36.43;36.35;99639.75;5092420;28;20206;-69
2022/06/03 09:19:41;;;;;;;4.18;3.10;;;;;;;36.20;39.50;99643.66;5091381;28;20217;-70
2022/06/03 09:22:13;;;;;;;5.15;3.03;;;;;;;36.27;38.11;99636.50;5092108;28;20204;-67
2022/06/03 09:24:42;;;;;;;8.57;5.72;;;;;;;36.43;34.96;99631.75;5092818;28;20574;-68
2022/06/03 09:27:13;;;;;;;3.17;2.95;;;;;;;36.53;37.87;99630.34;5090887;28;20635;-66
2022/06/03 09:29:46;;;;;;;2.30;2.20;;;;;;;36.59;33.50;99636.69;5093834;28;20199;-68
2022/06/03 09:32:13;;;;;;;3.85;3.55;;;;;;;36.57;35.56;99625.41;5091152;28;20199;-69
2022/06/03 09:34:44;;;;;;;2.50;2.40;;;;;;;36.42;37.69;99624.75;5091688;28;20195;-70
2022/06/03 09:37:15;;;;;;;8.48;6.13;;;;;;;36.41;40.51;99626.63;5093610;28;20664;-70
2022/06/03 09:39:44;;;;;;;4.85;4.43;;;;;;;36.36;37.69;99620.25;5087637;28;20649;-69
2022/06/03 09:42:13;;;;;;;3.60;3.30;;;;;;;36.02;37.35;99623.94;5091487;28;20264;-69
2022/06/03 09:44:42;;;;;;;2.40;2.20;;;;;;;36.06;36.58;99614.53;5091329;28;20679;-69
2022/06/03 09:47:11;;;;;;;3.75;3.45;;;;;;;36.03;36.44;99620.25;5089308;28;20245;-69
2022/06/03 09:49:39;;;;;;;3.03;2.90;;;;;;;36.29;37.68;99621.06;5091284;28;20199;-68
2022/06/03 09:52:12;;;;;;;2.97;2.78;;;;;;;36.38;38.25;99612.88;5090749;28;20195;-69
2022/06/03 09:54:41;;;;;;;2.70;2.60;;;;;;;36.56;34.78;99615.72;5090438;28;20199;-69
2022/06/03 09:57:14;;;;;;;2.97;2.85;;;;;;;36.52;33.18;99620.63;5091863;28;20564;-69
2022/06/03 09:59:49;;;;;;;2.83;2.63;;;;;;;36.36;32.21;99617.56;5091122;28;20222;-68
2022/06/03 10:02:16;;;;;;;3.22;2.45;;;;;;;36.48;34.82;99619.41;5084637;28;20211;-69
2022/06/03 10:04:43;;;;;;;2.00;1.90;;;;;;;36.42;32.99;99622.09;5089617;28;20203;-69
2022/06/03 10:07:13;;;;;;;2.33;2.10;;;;;;;36.55;34.23;99624.75;5088258;28;20203;-69
2022/06/03 10:18:04;;;;;;;2.45;2.35;;;;;;;36.20;31.15;99627.66;5090245;28;20206;-68
2022/06/03 10:20:31;;;;;;;2.90;2.67;;;;;;;36.36;32.49;99628.25;5090561;28;20203;-68
2022/06/03 10:22:59;;;;;;;2.75;2.65;;;;;;;36.54;31.39;99639.19;5091213;28;20203;-67
2022/06/03 10:25:28;;;;;;;2.25;2.15;;;;;;;36.69;31.83;99631.75;5091312;28;20665;-67
2022/06/03 10:27:56;;;;;;;2.53;2.42;;;;;;;36.82;29.96;99615.69;5091506;28;20218;-68
2022/06/03 10:30:30;;;;;;;2.30;2.10;;;;;;;37.14;31.82;99635.34;5089851;28;20709;-68
2022/06/03 10:32:57;;;;;;;2.72;2.63;;;;;;;37.17;30.54;99635.72;5090950;28;20213;-68
2022/06/03 10:35:28;;;;;;;5.55;2.40;;;;;;;37.09;31.79;99638.66;5091210;28;20210;-68
2022/06/03 10:37:56;;;;;;;2.47;2.30;;;;;;;37.11;31.40;99633.09;5091206;28;20207;-68
2022/06/03 10:40:26;;;;;;;2.58;2.47;;;;;;;36.80;30.07;99634.56;5090766;28;20674;-67
2022/06/03 10:42:55;;;;;;;4.53;2.50;;;;;;;36.42;31.30;99630.09;5090934;28;20210;-68
2022/06/03 10:45:27;;;;;;;3.30;2.42;;;;;;;36.45;32.20;99624.38;5090308;28;20242;-68
2022/06/03 10:47:55;;;;;;;2.75;2.58;;;;;;;36.61;31.90;99634.66;5091035;28;20227;-68
2022/06/03 10:50:30;;;;;;;3.13;2.50;;;;;;;36.97;32.50;99631.44;5090726;28;20256;-68
2022/06/03 11:01:31;;;;;;;2.25;2.15;;;;;;;37.19;32.00;99617.63;5089943;28;20738;-68
2022/06/03 11:03:58;;;;;;;2.42;2.33;;;;;;;37.22;31.39;99617.19;5089591;28;20261;-69
2022/06/03 11:06:28;;;;;;;7.03;2.70;;;;;;;37.17;31.33;99619.69;5090779;28;20637;-68
2022/06/03 11:08:58;;;;;;;2.60;2.50;;;;;;;37.06;33.46;99596.28;5089565;28;20675;-68
2022/06/03 11:11:35;;;;;;;2.55;2.45;;;;;;;37.26;33.78;99606.88;5090565;28;20240;-68
2022/06/03 11:14:24;;;;;;;5.95;1.88;;;;;;;37.25;32.65;99600.75;5089766;28;20284;-69
2022/06/03 11:16:57;;;;;;;2.35;2.17;;;;;;;37.23;28.91;99602.78;5088776;28;20195;-68
2022/06/03 11:19:24;;;;;;;2.33;2.22;;;;;;;37.22;29.66;99605.69;5090436;28;20397;-68
2022/06/03 11:22:12;;;;;;;2.08;1.98;;;;;;;37.32;31.01;99600.72;5090390;28;20198;-69
2022/06/03 11:24:39;;;;;;;2.10;2.00;;;;;;;37.24;31.56;99599.09;5089376;28;20195;-69
2022/06/03 11:27:11;;;;;;;2.38;2.28;;;;;;;37.14;32.74;99598.72;5090045;28;20631;-69
2022/06/03 11:29:41;;;;;;;3.15;2.17;;;;;;;36.79;32.37;99594.72;5089305;28;20203;-68
2022/06/03 11:32:11;;;;;;;2.22;2.13;;;;;;;36.74;31.94;99589.16;5091734;28;20697;-69
2022/06/03 11:34:41;;;;;;;2.15;2.05;;;;;;;36.81;32.19;99587.31;5091525;28;20211;-68
2022/06/03 11:37:16;;;;;;;2.60;2.50;;;;;;;36.69;32.82;99583.66;5091797;28;20199;-69
2022/06/03 11:39:47;;;;;;;2.45;2.25;;;;;;;36.79;31.17;99584.84;5091707;28;20221;-69
2022/06/03 11:42:22;;;;;;;2.42;2.33;;;;;;;36.80;31.93;99583.00;5091565;28;20210;-69
2022/06/03 11:44:55;;;;;;;2.65;2.55;;;;;;;36.84;29.86;99573.50;5089974;28;20550;-69
2022/06/03 11:47:26;;;;;;;2.13;2.03;;;;;;;36.72;31.15;99561.84;5091621;28;20195;-69
2022/06/03 11:49:54;;;;;;;3.88;2.22;;;;;;;36.67;29.92;99557.16;5091362;28;20199;-69
2022/06/03 11:52:22;;;;;;;3.72;2.42;;;;;;;36.88;30.81;99560.56;5091491;28;20245;-69
2022/06/03 11:54:51;;;;;;;2.25;2.13;;;;;;;36.97;30.66;99549.41;5091245;28;20229;-69
2022/06/03 11:57:20;;;;;;;2.05;1.95;;;;;;;36.49;31.12;99540.09;5091229;28;20199;-69
2022/06/03 11:59:52;;;;;;;2.72;2.63;;;;;;;36.59;30.97;99552.03;5090561;28;20595;-68
2022/06/03 12:02:29;;;;;;;2.53;2.33;;;;;;;36.76;30.53;99549.72;5087690;28;20199;-69
2022/06/03 12:05:00;;;;;;;2.22;2.13;;;;;;;36.90;30.07;99548.59;5090645;28;20203;-69
2022/06/03 12:07:36;;;;;;;2.33;2.20;;;;;;;37.10;31.38;99560.06;5090552;28;20838;-70
2022/06/03 12:10:11;;;;;;;2.72;2.63;;;;;;;37.12;31.82;99560.69;5087886;28;20210;-69
2022/06/03 12:15:45;;;;;;;5.07;2.30;;;;;;;37.31;31.79;99559.78;5088583;28;20779;-70
2022/06/03 12:18:50;;;;;;;2.83;2.72;;;;;;;36.92;29.11;99557.25;5088938;28;20211;-69
2022/06/03 12:21:55;;;;;;;2.05;1.95;;;;;;;36.68;29.43;99545.41;5088993;28;20195;-69
2022/06/03 12:24:41;;;;;;;2.50;2.35;;;;;;;36.66;29.65;99546.66;5088731;28;20229;-69
2022/06/03 12:27:16;;;;;;;4.28;1.98;;;;;;;36.39;28.58;99545.06;5083039;28;20265;-69
2022/06/03 12:29:52;;;;;;;2.25;2.15;;;;;;;36.47;29.96;99542.16;5090871;28;20191;-69
2022/06/03 12:32:25;;;;;;;2.30;2.10;;;;;;;36.38;30.14;99543.44;5095064;28;20230;-69
2022/06/03 12:34:51;;;;;;;2.50;2.40;;;;;;;36.32;29.88;99548.56;5095142;28;20191;-70
2022/06/03 12:37:27;;;;;;;2.33;2.13;;;;;;;36.56;30.20;99557.78;5095064;28;20195;-69
2022/06/03 12:40:00;;;;;;;2.35;2.25;;;;;;;36.21;30.40;99570.56;5093582;28;20727;-69
2022/06/03 12:42:39;;;;;;;5.70;2.97;;;;;;;35.11;39.76;99564.81;5092571;28;20199;-68
2022/06/03 12:45:34;;;;;;;3.58;2.80;;;;;;;34.32;42.66;99570.69;5094762;28;20623;-69
2022/06/03 12:48:02;;;;;;;5.38;2.90;;;;;;;34.20;43.62;99581.88;5095079;28;20195;-68
2022/06/03 12:51:00;;;;;;;3.47;2.83;;;;;;;34.09;42.20;99581.56;5095041;28;20191;-69
2022/06/03 12:53:36;;;;;;;2.47;2.33;;;;;;;33.55;40.86;99575.91;5094730;28;20226;-68
2022/06/03 12:56:07;;;;;;;6.50;2.50;;;;;;;33.45;41.39;99562.09;5094068;28;20252;-69
2022/06/03 12:58:58;;;;;;;7.30;2.67;;;;;;;33.74;41.80;99562.00;5094768;28;20211;-68
2022/06/03 13:02:07;;;;;;;3.72;2.80;;;;;;;33.88;41.08;99558.47;5093349;28;20209;-69
2022/06/03 13:04:47;;;;;;;2.78;2.58;;;;;;;34.16;41.04;99554.00;5078647;28;20196;-69
2022/06/03 13:07:29;;;;;;;2.92;2.55;;;;;;;33.86;39.79;99560.50;5094518;28;20206;-68
2022/06/03 13:10:13;;;;;;;2.95;2.50;;;;;;;34.09;41.78;99561.06;5094518;28;20199;-69
2022/06/03 13:12:49;;;;;;;2.50;2.40;;;;;;;34.00;40.61;99572.88;5094439;28;20634;-68
2022/06/03 13:15:45;;;;;;;2.53;2.42;;;;;;;33.62;39.11;99574.16;5094429;28;20226;-69
2022/06/03 13:18:18;;;;;;;3.33;2.25;;;;;;;33.65;40.45;99584.44;5089937;28;20211;-68
2022/06/03 13:20:48;;;;;;;2.80;2.60;;;;;;;33.93;40.40;99593.28;5093577;28;20217;-68
2022/06/03 13:23:33;;;;;;;2.72;2.53;;;;;;;34.08;38.31;99607.34;5083935;28;20260;-68